createdAt,value
2022-08-27T00:01:23.051Z,10.90
2022-08-27T00:04:11.576Z,10.32
2022-08-27T00:07:02.240Z,10.63
2022-08-27T00:09:50.712Z,12.27
2022-08-27T00:12:39.534Z,11.52
2022-08-27T00:15:28.574Z,10.10
2022-08-27T00:18:19.854Z,10.10
2022-08-27T00:21:11.165Z,10.15
2022-08-27T00:24:01.314Z,10.80
2022-08-27T00:26:50.622Z,10.10
2022-08-27T00:29:39.074Z,10.70
2022-08-27T00:32:27.666Z,12.07
2022-08-27T00:35:17.145Z,10.95
2022-08-27T00:38:06.205Z,10.65
2022-08-27T00:40:56.369Z,10.60
2022-08-27T00:43:48.403Z,10.75
2022-08-27T00:46:39.354Z,13.38
2022-08-27T00:49:33.732Z,10.32
2022-08-27T00:52:27.309Z,9.98
2022-08-27T00:55:19.160Z,11.60
2022-08-27T00:58:14.186Z,10.50
2022-08-27T01:01:03.255Z,10.73
2022-08-27T01:03:57.047Z,10.88
2022-08-27T01:06:45.378Z,10.38
2022-08-27T01:09:33.988Z,11.43
2022-08-27T01:12:22.838Z,10.95
2022-08-27T01:15:20.053Z,9.80
2022-08-27T01:18:10.037Z,11.95
2022-08-27T01:21:04.221Z,11.05
2022-08-27T01:23:59.500Z,10.60
2022-08-27T01:26:49.312Z,14.20
2022-08-27T01:29:38.350Z,10.95
2022-08-27T01:32:29.042Z,11.10
2022-08-27T01:35:19.111Z,11.05
2022-08-27T01:38:07.484Z,11.77
2022-08-27T01:41:07.132Z,11.70
2022-08-27T01:43:56.852Z,11.27
2022-08-27T01:46:46.341Z,11.55
2022-08-27T01:49:34.736Z,11.50
2022-08-27T01:52:27.372Z,11.40
2022-08-27T01:55:18.556Z,12.43
2022-08-27T01:58:07.139Z,10.90
2022-08-27T02:01:00.506Z,11.63
2022-08-27T02:03:49.019Z,11.27
2022-08-27T02:06:37.384Z,11.32
2022-08-27T02:09:26.974Z,11.40
2022-08-27T02:12:15.446Z,13.05
2022-08-27T02:15:04.658Z,10.63
2022-08-27T02:17:54.472Z,11.35
2022-08-27T02:20:44.308Z,11.27
2022-08-27T02:23:32.711Z,11.13
2022-08-27T02:26:21.087Z,10.73
2022-08-27T02:29:10.255Z,12.85
2022-08-27T02:31:58.601Z,12.35
2022-08-27T02:34:48.423Z,12.63
2022-08-27T02:37:37.615Z,13.15
2022-08-27T02:40:26.810Z,13.40
2022-08-27T02:43:15.729Z,14.45
2022-08-27T02:46:04.511Z,13.55
2022-08-27T02:48:52.862Z,13.43
2022-08-27T02:51:43.433Z,12.60
2022-08-27T02:54:32.866Z,13.48
2022-08-27T02:57:21.493Z,12.98
2022-08-27T03:00:13.747Z,12.07
2022-08-27T03:03:03.831Z,13.80
2022-08-27T03:05:53.014Z,14.23
2022-08-27T03:08:52.919Z,12.45
2022-08-27T03:11:42.145Z,13.68
2022-08-27T03:14:31.432Z,13.60
2022-08-27T03:17:48.673Z,13.05
2022-08-27T03:20:40.915Z,12.90
2022-08-27T03:23:33.150Z,14.27
2022-08-27T03:26:22.976Z,14.13
2022-08-27T03:29:11.355Z,14.77
2022-08-27T03:31:59.827Z,14.48
2022-08-27T03:34:48.241Z,15.18
2022-08-27T03:37:36.859Z,15.75
2022-08-27T03:40:25.215Z,18.48
2022-08-27T03:43:16.324Z,15.02
2022-08-27T03:46:05.193Z,15.32
2022-08-27T03:48:54.594Z,15.55
2022-08-27T03:51:46.486Z,16.20
2022-08-27T03:54:36.187Z,16.67
2022-08-27T03:57:24.575Z,16.27
2022-08-27T04:00:15.148Z,16.40
2022-08-27T04:03:06.093Z,16.45
2022-08-27T04:05:55.417Z,16.90
2022-08-27T04:08:43.788Z,16.67
2022-08-27T04:11:32.181Z,16.98
2022-08-27T04:14:26.960Z,16.85
2022-08-27T04:17:17.302Z,21.75
2022-08-27T04:20:31.607Z,19.20
2022-08-27T04:23:16.579Z,17.60
2022-08-27T04:26:06.401Z,17.63
2022-08-27T04:28:55.359Z,18.45
2022-08-27T04:31:43.759Z,19.55
2022-08-27T04:34:33.668Z,19.80
2022-08-27T04:37:22.088Z,18.58
2022-08-27T04:40:12.078Z,17.67
2022-08-27T04:43:00.494Z,16.67
2022-08-27T04:45:50.446Z,16.50
2022-08-27T04:48:39.130Z,16.60
2022-08-27T04:51:30.339Z,16.23
2022-08-27T04:54:19.388Z,16.65
2022-08-27T04:57:16.966Z,14.95
2022-08-27T05:00:07.209Z,15.70
2022-08-27T05:02:55.575Z,15.93
2022-08-27T05:05:44.037Z,17.05
2022-08-27T05:08:34.784Z,14.90
2022-08-27T05:11:26.674Z,15.35
2022-08-27T05:14:16.798Z,14.85
2022-08-27T05:17:05.214Z,16.25
2022-08-27T05:19:53.511Z,14.85
2022-08-27T05:22:41.878Z,14.63
2022-08-27T05:25:31.525Z,15.77
2022-08-27T05:28:22.153Z,15.77
2022-08-27T05:31:17.337Z,14.40
2022-08-27T05:34:10.088Z,15.60
2022-08-27T05:36:59.023Z,15.63
2022-08-27T05:39:47.388Z,14.82
2022-08-27T05:42:37.047Z,15.32
2022-08-27T05:45:25.351Z,14.52
2022-08-27T05:48:14.725Z,16.05
2022-08-27T05:51:09.811Z,15.18
2022-08-27T05:54:00.183Z,14.98
2022-08-27T05:56:50.378Z,14.63
2022-08-27T05:59:57.681Z,15.00
2022-08-27T06:02:46.896Z,16.55
2022-08-27T06:05:35.330Z,15.50
2022-08-27T06:08:23.796Z,16.02
2022-08-27T06:11:12.239Z,16.05
2022-08-27T06:14:00.735Z,16.50
2022-08-27T06:16:50.585Z,15.77
2022-08-27T06:19:39.018Z,15.40
2022-08-27T06:22:27.319Z,15.98
2022-08-27T06:25:15.593Z,15.65
2022-08-27T06:28:04.365Z,15.68
2022-08-27T06:30:55.903Z,16.02
2022-08-27T06:33:47.957Z,16.95
2022-08-27T06:36:38.332Z,16.20
2022-08-27T06:39:26.958Z,14.63
2022-08-27T06:42:16.061Z,16.45
2022-08-27T06:45:06.242Z,16.58
2022-08-27T06:47:55.980Z,15.25
2022-08-27T06:50:45.965Z,15.35
2022-08-27T06:53:34.337Z,16.20
2022-08-27T06:56:22.776Z,14.77
2022-08-27T06:59:13.077Z,16.38
2022-08-27T07:02:01.440Z,14.98
2022-08-27T07:04:50.613Z,15.82
2022-08-27T07:07:46.710Z,14.80
2022-08-27T07:10:37.530Z,17.00
2022-08-27T07:13:25.868Z,16.20
2022-08-27T07:16:16.329Z,16.73
2022-08-27T07:19:06.751Z,16.27
2022-08-27T07:21:55.123Z,15.93
2022-08-27T07:24:44.897Z,16.17
2022-08-27T07:27:33.307Z,16.08
2022-08-27T07:30:22.003Z,15.75
2022-08-27T07:33:10.368Z,15.98
2022-08-27T07:35:58.899Z,15.68
2022-08-27T07:38:52.786Z,16.73
2022-08-27T07:42:15.788Z,15.98
2022-08-27T07:45:04.145Z,16.65
2022-08-27T07:47:54.790Z,16.70
2022-08-27T07:50:43.793Z,15.52
2022-08-27T07:53:33.129Z,17.42
2022-08-27T07:56:22.442Z,15.27
2022-08-27T07:59:12.489Z,16.60
2022-08-27T08:02:00.895Z,15.65
2022-08-27T08:04:49.302Z,15.30
2022-08-27T08:07:38.591Z,12.95
2022-08-27T08:10:27.524Z,15.38
2022-08-27T08:13:16.603Z,14.20
2022-08-27T08:16:06.807Z,14.90
2022-08-27T08:18:55.578Z,16.42
2022-08-27T08:21:44.021Z,14.00
2022-08-27T08:24:32.374Z,15.35
2022-08-27T08:27:21.311Z,15.20
2022-08-27T08:30:11.120Z,14.60
2022-08-27T08:33:00.799Z,15.27
2022-08-27T08:35:50.096Z,18.98
2022-08-27T08:38:39.348Z,16.08
2022-08-27T08:41:40.624Z,15.55
2022-08-27T08:44:34.189Z,16.13
2022-08-27T08:47:26.381Z,16.40
2022-08-27T08:50:22.209Z,16.15
2022-08-27T08:53:20.099Z,18.02
2022-08-27T08:56:12.169Z,15.25
2022-08-27T08:59:04.684Z,16.50
2022-08-27T09:01:53.068Z,14.68
2022-08-27T09:04:42.418Z,13.75
2022-08-27T09:07:37.050Z,13.98
2022-08-27T09:10:34.618Z,15.63
2022-08-27T09:13:25.950Z,14.57
2022-08-27T09:16:14.262Z,18.23
2022-08-27T09:19:05.982Z,15.07
2022-08-27T09:22:01.252Z,15.50
2022-08-27T09:25:06.557Z,14.32
2022-08-27T09:27:58.609Z,17.02
2022-08-27T09:30:46.957Z,14.85
2022-08-27T09:33:44.335Z,16.08
2022-08-27T09:36:54.704Z,13.98
2022-08-27T09:39:49.951Z,12.85
2022-08-27T09:42:44.498Z,12.98
2022-08-27T09:45:37.307Z,16.85
2022-08-27T09:48:28.734Z,13.20
2022-08-27T09:51:22.016Z,13.63
2022-08-27T09:54:13.110Z,14.15
2022-08-27T09:57:01.761Z,14.98
2022-08-27T09:59:55.545Z,17.75
2022-08-27T10:02:53.021Z,11.32
2022-08-27T10:05:51.922Z,11.30
2022-08-27T10:08:44.938Z,16.63
2022-08-27T10:11:38.936Z,11.57
2022-08-27T10:14:32.536Z,14.95
2022-08-27T10:17:29.235Z,11.15
2022-08-27T10:20:30.102Z,10.75
2022-08-27T10:23:29.503Z,9.85
2022-08-27T10:26:24.585Z,10.07
2022-08-27T10:29:22.661Z,10.27
2022-08-27T10:32:25.732Z,11.77
2022-08-27T10:35:20.857Z,13.90
2022-08-27T10:38:15.736Z,14.43
2022-08-27T10:41:13.833Z,9.18
2022-08-27T10:44:26.283Z,11.50
2022-08-27T10:47:30.805Z,9.93
2022-08-27T10:50:28.592Z,13.85
2022-08-27T10:53:27.121Z,9.88
2022-08-27T10:56:22.939Z,12.20
2022-08-27T10:59:25.804Z,10.32
2022-08-27T11:02:24.274Z,9.82
2022-08-27T11:05:18.707Z,9.25
2022-08-27T11:08:14.543Z,13.27
2022-08-27T11:11:34.986Z,9.25
2022-08-27T11:14:25.420Z,9.55
2022-08-27T11:17:19.963Z,11.85
2022-08-27T11:20:13.288Z,12.32
2022-08-27T11:23:06.062Z,10.15
2022-08-27T11:25:59.101Z,9.70
2022-08-27T11:28:55.684Z,10.68
2022-08-27T11:31:52.139Z,8.48
2022-08-27T11:34:47.548Z,8.93
2022-08-27T11:37:53.071Z,11.25
2022-08-27T11:41:00.609Z,7.80
2022-08-27T11:43:49.252Z,8.95
2022-08-27T11:46:45.170Z,9.02
2022-08-27T11:49:42.355Z,10.23
2022-08-27T11:52:36.478Z,9.25
2022-08-27T11:55:29.293Z,10.88
2022-08-27T11:58:29.184Z,8.43
2022-08-27T12:01:26.982Z,8.95
2022-08-27T12:04:24.893Z,11.30
2022-08-27T12:07:30.833Z,9.27
2022-08-27T12:10:36.578Z,10.00
2022-08-27T12:13:35.176Z,8.77
2022-08-27T12:16:32.070Z,8.30
2022-08-27T12:19:33.730Z,10.07
2022-08-27T12:22:58.705Z,8.80
2022-08-27T12:25:57.862Z,9.55
2022-08-27T12:28:47.558Z,8.63
2022-08-27T12:31:38.262Z,9.65
2022-08-27T12:34:28.982Z,8.25
2022-08-27T12:37:23.514Z,9.07
2022-08-27T12:40:22.959Z,8.90
2022-08-27T12:43:14.409Z,8.73
2022-08-27T12:46:08.273Z,10.35
2022-08-27T12:48:59.364Z,9.52
2022-08-27T12:52:14.809Z,9.85
2022-08-27T12:55:17.460Z,9.40
2022-08-27T12:58:15.790Z,7.82
2022-08-27T13:01:22.441Z,10.27
2022-08-27T13:04:21.677Z,8.20
2022-08-27T13:07:10.833Z,8.93
2022-08-27T13:10:10.758Z,9.52
2022-08-27T13:13:06.376Z,12.27
2022-08-27T13:15:58.707Z,9.52
2022-08-27T13:18:50.598Z,9.18
2022-08-27T13:21:38.974Z,11.15
2022-08-27T13:24:36.023Z,9.98
2022-08-27T13:27:26.490Z,8.25
2022-08-27T13:30:26.876Z,10.00
2022-08-27T13:33:27.982Z,8.40
2022-08-27T13:36:27.486Z,10.40
2022-08-27T13:39:19.401Z,8.63
2022-08-27T13:42:10.297Z,8.65
2022-08-27T13:45:03.769Z,8.23
2022-08-27T13:47:54.801Z,8.20
2022-08-27T13:50:50.736Z,10.40
2022-08-27T13:54:03.564Z,8.70
2022-08-27T13:57:08.328Z,8.73
2022-08-27T13:59:56.807Z,9.00
2022-08-27T14:02:56.012Z,9.00
2022-08-27T14:05:49.188Z,9.30
2022-08-27T14:08:37.669Z,9.48
2022-08-27T14:11:28.216Z,9.40
2022-08-27T14:14:19.283Z,9.45
2022-08-27T14:17:20.558Z,10.75
2022-08-27T14:20:10.094Z,9.90
2022-08-27T14:22:58.628Z,10.60
2022-08-27T14:25:48.707Z,10.18
2022-08-27T14:28:38.399Z,8.85
2022-08-27T14:31:26.835Z,8.57
2022-08-27T14:34:15.599Z,10.70
2022-08-27T14:37:04.768Z,8.63
2022-08-27T14:39:53.317Z,11.18
2022-08-27T14:42:41.714Z,8.40
2022-08-27T14:45:31.406Z,9.65
2022-08-27T14:48:28.653Z,8.45
2022-08-27T14:51:24.113Z,9.30
2022-08-27T14:54:13.048Z,9.10
2022-08-27T14:57:02.357Z,9.13
2022-08-27T14:59:50.789Z,8.48
2022-08-27T15:02:47.944Z,10.13
2022-08-27T15:05:36.648Z,7.80
2022-08-27T15:08:29.203Z,8.73
2022-08-27T15:11:24.656Z,8.30
2022-08-27T15:14:17.432Z,8.20
2022-08-27T15:17:33.359Z,7.30
2022-08-27T15:20:20.169Z,9.95
2022-08-27T15:23:10.785Z,14.15
2022-08-27T15:25:59.128Z,8.32
2022-08-27T15:28:47.686Z,8.07
2022-08-27T15:31:40.178Z,7.75
2022-08-27T15:34:28.559Z,8.32
2022-08-27T15:37:18.267Z,8.65
2022-08-27T15:40:07.956Z,9.13
2022-08-27T15:42:59.338Z,7.88
2022-08-27T15:45:47.671Z,8.98
2022-08-27T15:48:35.969Z,8.48
2022-08-27T15:51:29.634Z,8.20
2022-08-27T15:54:19.351Z,8.43
2022-08-27T15:57:09.776Z,11.15
2022-08-27T15:59:58.153Z,8.63
2022-08-27T16:02:47.669Z,9.75
2022-08-27T16:05:38.210Z,10.48
2022-08-27T16:08:26.633Z,13.25
2022-08-27T16:11:17.675Z,10.52
2022-08-27T16:14:07.438Z,10.65
2022-08-27T16:16:58.300Z,10.65
2022-08-27T16:19:46.689Z,10.68
2022-08-27T16:22:35.921Z,9.85
2022-08-27T16:25:24.330Z,10.32
2022-08-27T16:28:14.080Z,11.13
2022-08-27T16:31:02.797Z,10.25
2022-08-27T16:33:51.182Z,9.98
2022-08-27T16:36:39.509Z,9.70
2022-08-27T16:39:33.042Z,11.15
2022-08-27T16:42:23.316Z,10.95
2022-08-27T16:45:14.437Z,10.73
2022-08-27T16:48:20.676Z,11.07
2022-08-27T16:51:14.402Z,12.13
2022-08-27T16:54:04.627Z,11.93
2022-08-27T16:56:52.871Z,15.52
2022-08-27T16:59:41.112Z,11.50
2022-08-27T17:02:35.042Z,11.77
2022-08-27T17:05:33.945Z,10.43
2022-08-27T17:08:26.720Z,11.00
2022-08-27T17:11:17.499Z,11.48
2022-08-27T17:14:05.818Z,11.77
2022-08-27T17:16:55.104Z,11.88
2022-08-27T17:19:45.426Z,11.15
2022-08-27T17:22:33.920Z,10.57
2022-08-27T17:25:22.166Z,11.05
2022-08-27T17:28:18.582Z,10.52
2022-08-27T17:31:08.318Z,10.05
2022-08-27T17:33:59.419Z,11.75
2022-08-27T17:36:49.592Z,10.45
2022-08-27T17:39:38.020Z,9.98
2022-08-27T17:42:26.749Z,10.75
2022-08-27T17:45:17.215Z,11.77
2022-08-27T17:48:14.049Z,12.23
2022-08-27T17:51:06.645Z,11.65
2022-08-27T17:54:01.252Z,13.57
2022-08-27T17:56:49.956Z,13.15
2022-08-27T17:59:38.584Z,14.13
2022-08-27T18:02:33.822Z,11.93
2022-08-27T18:05:24.985Z,13.18
2022-08-27T18:08:13.658Z,11.93
2022-08-27T18:11:04.528Z,12.13
2022-08-27T18:13:55.668Z,13.88
2022-08-27T18:16:43.958Z,13.35
2022-08-27T18:19:32.284Z,13.73
2022-08-27T18:22:21.314Z,14.80
2022-08-27T18:25:10.740Z,14.80
2022-08-27T18:28:03.402Z,15.95
2022-08-27T18:30:52.404Z,13.98
2022-08-27T18:33:40.901Z,14.73
2022-08-27T18:36:29.700Z,13.38
2022-08-27T18:39:17.982Z,12.50
2022-08-27T18:42:06.882Z,13.02
2022-08-27T18:44:56.707Z,15.02
2022-08-27T18:47:45.562Z,14.35
2022-08-27T18:50:33.989Z,13.80
2022-08-27T18:53:22.600Z,12.45
2022-08-27T18:56:12.300Z,11.80
2022-08-27T18:59:06.985Z,12.25
2022-08-27T19:01:57.375Z,12.18
2022-08-27T19:04:45.982Z,12.52
2022-08-27T19:07:34.384Z,12.98
2022-08-27T19:10:22.876Z,14.38
2022-08-27T19:13:11.216Z,16.38
2022-08-27T19:16:02.912Z,18.17
2022-08-27T19:18:53.096Z,23.60
2022-08-27T19:21:41.807Z,26.27
2022-08-27T19:24:30.124Z,31.55
2022-08-27T19:27:27.634Z,36.60
2022-08-27T19:30:17.297Z,40.25
2022-08-27T19:33:05.642Z,40.42
2022-08-27T19:35:55.411Z,39.75
2022-08-27T19:38:44.863Z,38.80
2022-08-27T19:41:34.531Z,37.40
2022-08-27T19:44:22.875Z,36.03
2022-08-27T19:47:12.720Z,32.47
2022-08-27T19:50:01.074Z,31.92
2022-08-27T19:52:50.682Z,35.55
2022-08-27T19:55:39.832Z,38.03
2022-08-27T19:58:28.196Z,40.70
2022-08-27T20:01:16.634Z,44.38
2022-08-27T20:04:05.974Z,47.97
2022-08-27T20:06:54.364Z,49.13
2022-08-27T20:09:44.076Z,48.00
2022-08-27T20:12:32.401Z,52.20
2022-08-27T20:15:23.484Z,52.80
2022-08-27T20:18:14.001Z,49.33
2022-08-27T20:21:05.799Z,48.97
2022-08-27T20:23:54.459Z,42.35
2022-08-27T20:26:44.151Z,40.30
2022-08-27T20:29:33.073Z,40.42
2022-08-27T20:32:22.780Z,42.28
2022-08-27T20:35:12.323Z,44.63
2022-08-27T20:38:00.696Z,44.70
2022-08-27T20:40:49.355Z,46.38
2022-08-27T20:43:39.062Z,50.50
2022-08-27T20:46:30.656Z,50.30
2022-08-27T20:49:19.010Z,49.20
2022-08-27T20:52:10.947Z,48.38
2022-08-27T20:54:59.964Z,46.50
2022-08-27T20:58:06.916Z,44.15
2022-08-27T21:00:58.034Z,50.60
2022-08-27T21:03:46.378Z,56.60
2022-08-27T21:06:34.680Z,59.75
2022-08-27T21:09:22.907Z,64.95
2022-08-27T21:12:11.206Z,67.03
2022-08-27T21:15:00.717Z,68.65
2022-08-27T21:17:50.483Z,70.43
2022-08-27T21:20:38.872Z,71.13
2022-08-27T21:23:27.924Z,68.78
2022-08-27T21:26:16.238Z,67.60
2022-08-27T21:29:05.929Z,64.93
2022-08-27T21:31:54.319Z,63.05
2022-08-27T21:34:44.307Z,63.70
2022-08-27T21:37:32.663Z,63.55
2022-08-27T21:40:21.210Z,63.05
2022-08-27T21:43:09.526Z,60.38
2022-08-27T21:45:58.899Z,62.70
2022-08-27T21:48:47.789Z,61.55
2022-08-27T21:51:48.620Z,60.20
2022-08-27T21:54:42.188Z,60.55
2022-08-27T21:57:30.482Z,65.57
2022-08-27T22:00:38.623Z,69.32
2022-08-27T22:03:27.296Z,68.07
2022-08-27T22:06:15.699Z,65.80
2022-08-27T22:09:05.444Z,62.28
2022-08-27T22:11:53.755Z,56.28
2022-08-27T22:14:42.077Z,50.42
2022-08-27T22:17:30.337Z,49.25
2022-08-27T22:20:19.017Z,44.63
2022-08-27T22:23:08.899Z,41.58
2022-08-27T22:25:58.859Z,39.25
2022-08-27T22:28:47.234Z,38.13
2022-08-27T22:31:36.186Z,38.72
2022-08-27T22:34:24.554Z,41.25
2022-08-27T22:37:13.001Z,44.25
2022-08-27T22:40:01.439Z,45.58
2022-08-27T22:42:52.211Z,46.10
2022-08-27T22:45:40.565Z,46.83
2022-08-27T22:48:28.961Z,49.78
2022-08-27T22:51:17.289Z,51.60
2022-08-27T22:54:05.875Z,52.47
2022-08-27T22:56:54.245Z,52.50
2022-08-27T22:59:43.967Z,54.13
2022-08-27T23:02:32.397Z,54.25
2022-08-27T23:05:21.014Z,52.22
2022-08-27T23:08:11.047Z,51.05
2022-08-27T23:10:59.448Z,52.00
2022-08-27T23:13:47.938Z,50.58
2022-08-27T23:16:37.791Z,54.88
2022-08-27T23:19:26.328Z,58.97
2022-08-27T23:22:16.291Z,66.13
2022-08-27T23:25:23.376Z,68.55
2022-08-27T23:28:14.838Z,71.45
2022-08-27T23:31:03.839Z,68.93
2022-08-27T23:33:54.580Z,69.32
2022-08-27T23:36:42.966Z,70.43
2022-08-27T23:39:31.284Z,69.90
2022-08-27T23:42:20.168Z,68.75
2022-08-27T23:45:11.826Z,66.85
2022-08-27T23:48:00.132Z,70.03
2022-08-27T23:50:50.814Z,71.75
2022-08-27T23:53:39.402Z,72.90
2022-08-27T23:56:29.985Z,73.93
2022-08-27T23:59:18.695Z,73.60
